sensor_id;sensor_type;location;lat;lon;timestamp;P1;durP1;ratioP1;P2;durP2;ratioP2
1467;SDS011;727;48.892;9.544;2023-06-26T00:01:30;10.03;;;9.03;;
1467;SDS011;727;48.892;9.544;2023-06-26T00:03:57;9.53;;;7.10;;
1467;SDS011;727;48.892;9.544;2023-06-26T00:06:24;10.27;;;8.10;;
1467;SDS011;727;48.892;9.544;2023-06-26T00:08:53;8.70;;;7.80;;
1467;SDS011;727;48.892;9.544;2023-06-26T00:11:20;9.93;;;7.47;;
1467;SDS011;727;48.892;9.544;2023-06-26T00:13:48;8.90;;;8.00;;
1467;SDS011;727;48.892;9.544;2023-06-26T00:16:15;9.57;;;8.10;;
1467;SDS011;727;48.892;9.544;2023-06-26T00:18:41;10.23;;;8.23;;
1467;SDS011;727;48.892;9.544;2023-06-26T00:21:08;8.23;;;7.43;;
1467;SDS011;727;48.892;9.544;2023-06-26T00:23:35;9.83;;;8.83;;
1467;SDS011;727;48.892;9.544;2023-06-26T00:26:04;8.17;;;7.37;;
1467;SDS011;727;48.892;9.544;2023-06-26T00:28:30;9.00;;;8.10;;
1467;SDS011;727;48.892;9.544;2023-06-26T00:30:57;8.83;;;8.03;;
1467;SDS011;727;48.892;9.544;2023-06-26T00:33:24;8.87;;;8.00;;
1467;SDS011;727;48.892;9.544;2023-06-26T00:35:51;8.30;;;7.30;;
1467;SDS011;727;48.892;9.544;2023-06-26T00:38:18;9.57;;;7.67;;
1467;SDS011;727;48.892;9.544;2023-06-26T00:40:44;8.80;;;7.50;;
1467;SDS011;727;48.892;9.544;2023-06-26T00:43:12;9.60;;;7.83;;
1467;SDS011;727;48.892;9.544;2023-06-26T00:45:39;9.10;;;8.20;;
1467;SDS011;727;48.892;9.544;2023-06-26T00:48:06;9.88;;;7.63;;
1467;SDS011;727;48.892;9.544;2023-06-26T00:50:33;8.27;;;7.37;;
1467;SDS011;727;48.892;9.544;2023-06-26T00:53:00;9.33;;;8.37;;
1467;SDS011;727;48.892;9.544;2023-06-26T00:55:27;8.93;;;7.90;;
1467;SDS011;727;48.892;9.544;2023-06-26T00:57:54;8.50;;;7.67;;
1467;SDS011;727;48.892;9.544;2023-06-26T01:00:22;9.60;;;8.57;;
1467;SDS011;727;48.892;9.544;2023-06-26T01:02:49;8.70;;;7.80;;
1467;SDS011;727;48.892;9.544;2023-06-26T01:05:16;9.80;;;8.80;;
1467;SDS011;727;48.892;9.544;2023-06-26T01:07:46;9.43;;;8.47;;
1467;SDS011;727;48.892;9.544;2023-06-26T01:10:13;10.43;;;9.40;;
1467;SDS011;727;48.892;9.544;2023-06-26T01:12:40;9.77;;;7.90;;
1467;SDS011;727;48.892;9.544;2023-06-26T01:15:08;9.13;;;8.23;;
1467;SDS011;727;48.892;9.544;2023-06-26T01:17:37;9.63;;;8.73;;
1467;SDS011;727;48.892;9.544;2023-06-26T01:20:06;9.23;;;8.30;;
1467;SDS011;727;48.892;9.544;2023-06-26T01:22:36;8.43;;;7.50;;
1467;SDS011;727;48.892;9.544;2023-06-26T01:25:12;9.40;;;8.40;;
1467;SDS011;727;48.892;9.544;2023-06-26T01:27:45;10.10;;;8.53;;
1467;SDS011;727;48.892;9.544;2023-06-26T01:30:14;9.43;;;8.50;;
1467;SDS011;727;48.892;9.544;2023-06-26T01:32:43;9.38;;;8.18;;
1467;SDS011;727;48.892;9.544;2023-06-26T01:35:10;12.90;;;8.37;;
1467;SDS011;727;48.892;9.544;2023-06-26T01:37:38;9.77;;;8.77;;
1467;SDS011;727;48.892;9.544;2023-06-26T01:40:05;10.67;;;8.90;;
1467;SDS011;727;48.892;9.544;2023-06-26T01:42:33;9.37;;;8.37;;
1467;SDS011;727;48.892;9.544;2023-06-26T01:45:02;10.33;;;9.23;;
1467;SDS011;727;48.892;9.544;2023-06-26T01:47:36;10.97;;;9.90;;
1467;SDS011;727;48.892;9.544;2023-06-26T01:50:09;9.27;;;8.27;;
1467;SDS011;727;48.892;9.544;2023-06-26T01:52:41;9.30;;;8.47;;
1467;SDS011;727;48.892;9.544;2023-06-26T01:55:12;9.73;;;8.67;;
1467;SDS011;727;48.892;9.544;2023-06-26T01:57:43;9.40;;;8.50;;
1467;SDS011;727;48.892;9.544;2023-06-26T02:00:14;18.70;;;9.60;;
1467;SDS011;727;48.892;9.544;2023-06-26T02:02:44;10.13;;;9.03;;
1467;SDS011;727;48.892;9.544;2023-06-26T02:05:11;9.63;;;8.70;;
1467;SDS011;727;48.892;9.544;2023-06-26T02:07:38;8.90;;;8.10;;
1467;SDS011;727;48.892;9.544;2023-06-26T02:10:05;10.13;;;8.67;;
1467;SDS011;727;48.892;9.544;2023-06-26T02:12:33;8.73;;;7.90;;
1467;SDS011;727;48.892;9.544;2023-06-26T02:15:00;9.83;;;8.20;;
1467;SDS011;727;48.892;9.544;2023-06-26T02:17:29;10.77;;;9.07;;
1467;SDS011;727;48.892;9.544;2023-06-26T02:19:56;11.00;;;9.67;;
1467;SDS011;727;48.892;9.544;2023-06-26T02:22:22;11.60;;;8.67;;
1467;SDS011;727;48.892;9.544;2023-06-26T02:24:49;9.60;;;8.63;;
1467;SDS011;727;48.892;9.544;2023-06-26T02:27:16;10.13;;;8.20;;
1467;SDS011;727;48.892;9.544;2023-06-26T02:29:43;8.67;;;7.30;;
1467;SDS011;727;48.892;9.544;2023-06-26T02:32:10;8.80;;;7.90;;
1467;SDS011;727;48.892;9.544;2023-06-26T02:34:38;10.00;;;8.63;;
1467;SDS011;727;48.892;9.544;2023-06-26T02:37:05;11.07;;;8.50;;
1467;SDS011;727;48.892;9.544;2023-06-26T02:39:32;8.50;;;7.70;;
1467;SDS011;727;48.892;9.544;2023-06-26T02:41:59;8.47;;;7.70;;
1467;SDS011;727;48.892;9.544;2023-06-26T02:44:26;10.90;;;8.67;;
1467;SDS011;727;48.892;9.544;2023-06-26T02:46:53;9.80;;;8.77;;
1467;SDS011;727;48.892;9.544;2023-06-26T02:49:19;9.27;;;8.27;;
1467;SDS011;727;48.892;9.544;2023-06-26T02:51:47;9.23;;;8.20;;
1467;SDS011;727;48.892;9.544;2023-06-26T02:54:14;9.50;;;8.30;;
1467;SDS011;727;48.892;9.544;2023-06-26T02:56:41;10.80;;;9.43;;
1467;SDS011;727;48.892;9.544;2023-06-26T02:59:08;9.40;;;7.93;;
1467;SDS011;727;48.892;9.544;2023-06-26T03:01:35;8.87;;;7.93;;
1467;SDS011;727;48.892;9.544;2023-06-26T03:04:01;9.30;;;8.40;;
1467;SDS011;727;48.892;9.544;2023-06-26T03:06:29;9.70;;;8.57;;
1467;SDS011;727;48.892;9.544;2023-06-26T03:08:57;9.63;;;8.70;;
1467;SDS011;727;48.892;9.544;2023-06-26T03:11:24;8.60;;;7.70;;
1467;SDS011;727;48.892;9.544;2023-06-26T03:13:50;9.33;;;8.07;;
1467;SDS011;727;48.892;9.544;2023-06-26T03:16:17;8.93;;;8.10;;
1467;SDS011;727;48.892;9.544;2023-06-26T03:18:44;10.57;;;8.80;;
1467;SDS011;727;48.892;9.544;2023-06-26T03:21:11;9.87;;;8.87;;
1467;SDS011;727;48.892;9.544;2023-06-26T03:23:38;10.07;;;8.47;;
1467;SDS011;727;48.892;9.544;2023-06-26T03:26:06;13.93;;;8.03;;
1467;SDS011;727;48.892;9.544;2023-06-26T03:28:33;8.50;;;7.60;;
1467;SDS011;727;48.892;9.544;2023-06-26T03:30:59;8.57;;;7.70;;
1467;SDS011;727;48.892;9.544;2023-06-26T03:33:26;9.83;;;8.23;;
1467;SDS011;727;48.892;9.544;2023-06-26T03:35:53;9.30;;;8.40;;
1467;SDS011;727;48.892;9.544;2023-06-26T03:38:21;9.70;;;8.50;;
1467;SDS011;727;48.892;9.544;2023-06-26T03:40:49;9.60;;;8.63;;
1467;SDS011;727;48.892;9.544;2023-06-26T03:43:17;10.50;;;9.40;;
1467;SDS011;727;48.892;9.544;2023-06-26T03:45:44;8.50;;;7.60;;
1467;SDS011;727;48.892;9.544;2023-06-26T03:48:11;8.63;;;7.80;;
1467;SDS011;727;48.892;9.544;2023-06-26T03:50:39;9.00;;;8.20;;
1467;SDS011;727;48.892;9.544;2023-06-26T03:53:05;9.50;;;8.47;;
1467;SDS011;727;48.892;9.544;2023-06-26T03:55:32;9.90;;;8.90;;
1467;SDS011;727;48.892;9.544;2023-06-26T03:57:59;8.80;;;7.90;;
1467;SDS011;727;48.892;9.544;2023-06-26T04:00:27;9.50;;;8.60;;
1467;SDS011;727;48.892;9.544;2023-06-26T04:02:54;9.97;;;8.67;;
1467;SDS011;727;48.892;9.544;2023-06-26T04:05:22;9.50;;;8.03;;
1467;SDS011;727;48.892;9.544;2023-06-26T04:07:49;10.20;;;9.10;;
1467;SDS011;727;48.892;9.544;2023-06-26T04:10:16;10.27;;;9.27;;
1467;SDS011;727;48.892;9.544;2023-06-26T04:12:43;8.80;;;8.00;;
1467;SDS011;727;48.892;9.544;2023-06-26T04:15:10;10.27;;;9.07;;
1467;SDS011;727;48.892;9.544;2023-06-26T04:17:38;14.40;;;8.20;;
1467;SDS011;727;48.892;9.544;2023-06-26T04:20:05;9.77;;;8.77;;
1467;SDS011;727;48.892;9.544;2023-06-26T04:22:33;9.57;;;8.67;;
1467;SDS011;727;48.892;9.544;2023-06-26T04:25:01;8.97;;;8.10;;
1467;SDS011;727;48.892;9.544;2023-06-26T04:27:29;9.90;;;8.90;;
1467;SDS011;727;48.892;9.544;2023-06-26T04:29:56;9.97;;;8.33;;
1467;SDS011;727;48.892;9.544;2023-06-26T04:32:23;9.20;;;8.33;;
1467;SDS011;727;48.892;9.544;2023-06-26T04:34:51;10.47;;;8.47;;
1467;SDS011;727;48.892;9.544;2023-06-26T04:37:18;9.93;;;9.00;;
1467;SDS011;727;48.892;9.544;2023-06-26T04:39:45;10.97;;;9.93;;
1467;SDS011;727;48.892;9.544;2023-06-26T04:42:12;10.10;;;9.10;;
1467;SDS011;727;48.892;9.544;2023-06-26T04:44:39;14.27;;;9.33;;
1467;SDS011;727;48.892;9.544;2023-06-26T04:47:06;9.87;;;8.13;;
1467;SDS011;727;48.892;9.544;2023-06-26T04:49:33;10.13;;;8.03;;
1467;SDS011;727;48.892;9.544;2023-06-26T04:52:01;9.27;;;8.30;;
1467;SDS011;727;48.892;9.544;2023-06-26T04:54:29;8.90;;;8.03;;
1467;SDS011;727;48.892;9.544;2023-06-26T04:56:55;10.00;;;7.63;;
1467;SDS011;727;48.892;9.544;2023-06-26T04:59:22;11.27;;;9.00;;
1467;SDS011;727;48.892;9.544;2023-06-26T05:01:49;10.03;;;8.87;;
1467;SDS011;727;48.892;9.544;2023-06-26T05:04:16;8.83;;;8.03;;
1467;SDS011;727;48.892;9.544;2023-06-26T05:06:43;9.60;;;8.80;;
1467;SDS011;727;48.892;9.544;2023-06-26T05:09:11;8.73;;;8.03;;
1467;SDS011;727;48.892;9.544;2023-06-26T05:11:38;10.40;;;9.40;;
1467;SDS011;727;48.892;9.544;2023-06-26T05:14:05;9.07;;;8.17;;
1467;SDS011;727;48.892;9.544;2023-06-26T05:16:34;8.53;;;7.83;;
1467;SDS011;727;48.892;9.544;2023-06-26T05:19:01;10.00;;;9.10;;
1467;SDS011;727;48.892;9.544;2023-06-26T05:21:28;8.20;;;7.50;;
1467;SDS011;727;48.892;9.544;2023-06-26T05:23:56;13.10;;;8.63;;
1467;SDS011;727;48.892;9.544;2023-06-26T05:26:26;9.67;;;8.70;;
1467;SDS011;727;48.892;9.544;2023-06-26T05:28:53;9.00;;;7.60;;
1467;SDS011;727;48.892;9.544;2023-06-26T05:31:21;9.40;;;8.60;;
1467;SDS011;727;48.892;9.544;2023-06-26T05:33:48;10.63;;;8.97;;
1467;SDS011;727;48.892;9.544;2023-06-26T05:36:16;8.40;;;7.57;;
1467;SDS011;727;48.892;9.544;2023-06-26T05:38:44;16.00;;;7.93;;
1467;SDS011;727;48.892;9.544;2023-06-26T05:41:12;9.47;;;8.60;;
1467;SDS011;727;48.892;9.544;2023-06-26T05:43:40;9.53;;;8.53;;
1467;SDS011;727;48.892;9.544;2023-06-26T05:46:07;9.83;;;8.83;;
1467;SDS011;727;48.892;9.544;2023-06-26T05:48:34;9.00;;;8.07;;
1467;SDS011;727;48.892;9.544;2023-06-26T05:51:01;9.97;;;8.07;;
1467;SDS011;727;48.892;9.544;2023-06-26T05:53:29;8.93;;;7.57;;
1467;SDS011;727;48.892;9.544;2023-06-26T05:55:56;8.77;;;7.87;;
1467;SDS011;727;48.892;9.544;2023-06-26T05:58:24;11.20;;;8.13;;
1467;SDS011;727;48.892;9.544;2023-06-26T06:00:55;9.80;;;8.80;;
1467;SDS011;727;48.892;9.544;2023-06-26T06:03:22;9.83;;;8.80;;
1467;SDS011;727;48.892;9.544;2023-06-26T06:05:49;8.03;;;7.23;;
1467;SDS011;727;48.892;9.544;2023-06-26T06:08:16;9.20;;;8.30;;
1467;SDS011;727;48.892;9.544;2023-06-26T06:10:43;9.07;;;8.27;;
1467;SDS011;727;48.892;9.544;2023-06-26T06:13:09;9.57;;;8.57;;
1467;SDS011;727;48.892;9.544;2023-06-26T06:15:36;12.13;;;8.20;;
1467;SDS011;727;48.892;9.544;2023-06-26T06:18:05;8.30;;;7.60;;
1467;SDS011;727;48.892;9.544;2023-06-26T06:20:31;8.70;;;7.90;;
1467;SDS011;727;48.892;9.544;2023-06-26T06:23:00;10.23;;;8.27;;
1467;SDS011;727;48.892;9.544;2023-06-26T06:25:27;9.63;;;8.37;;
1467;SDS011;727;48.892;9.544;2023-06-26T06:27:54;12.40;;;9.50;;
1467;SDS011;727;48.892;9.544;2023-06-26T06:30:20;9.40;;;8.50;;
1467;SDS011;727;48.892;9.544;2023-06-26T06:32:47;10.63;;;9.53;;
1467;SDS011;727;48.892;9.544;2023-06-26T06:35:18;11.87;;;9.13;;
1467;SDS011;727;48.892;9.544;2023-06-26T06:37:45;9.97;;;8.80;;
1467;SDS011;727;48.892;9.544;2023-06-26T06:40:12;9.30;;;8.40;;
1467;SDS011;727;48.892;9.544;2023-06-26T06:42:39;10.37;;;9.20;;
1467;SDS011;727;48.892;9.544;2023-06-26T06:45:06;9.87;;;8.97;;
1467;SDS011;727;48.892;9.544;2023-06-26T06:47:33;9.03;;;8.13;;
1467;SDS011;727;48.892;9.544;2023-06-26T06:50:01;9.03;;;8.10;;
1467;SDS011;727;48.892;9.544;2023-06-26T06:52:35;10.57;;;9.63;;
1467;SDS011;727;48.892;9.544;2023-06-26T06:55:03;11.53;;;9.23;;
1467;SDS011;727;48.892;9.544;2023-06-26T06:57:33;9.90;;;8.80;;
1467;SDS011;727;48.892;9.544;2023-06-26T07:00:02;10.47;;;8.97;;
1467;SDS011;727;48.892;9.544;2023-06-26T07:02:30;9.90;;;8.90;;
1467;SDS011;727;48.892;9.544;2023-06-26T07:04:57;10.20;;;9.07;;
1467;SDS011;727;48.892;9.544;2023-06-26T07:07:24;9.20;;;7.67;;
1467;SDS011;727;48.892;9.544;2023-06-26T07:09:57;11.10;;;8.50;;
1467;SDS011;727;48.892;9.544;2023-06-26T07:12:24;8.97;;;8.17;;
1467;SDS011;727;48.892;9.544;2023-06-26T07:14:51;9.50;;;8.60;;
1467;SDS011;727;48.892;9.544;2023-06-26T07:17:19;9.53;;;7.80;;
1467;SDS011;727;48.892;9.544;2023-06-26T07:19:46;8.70;;;7.83;;
1467;SDS011;727;48.892;9.544;2023-06-26T07:22:12;10.20;;;9.27;;
1467;SDS011;727;48.892;9.544;2023-06-26T07:24:39;11.70;;;9.03;;
1467;SDS011;727;48.892;9.544;2023-06-26T07:27:08;9.80;;;8.80;;
1467;SDS011;727;48.892;9.544;2023-06-26T07:29:35;13.07;;;8.40;;
1467;SDS011;727;48.892;9.544;2023-06-26T07:32:01;8.23;;;7.30;;
1467;SDS011;727;48.892;9.544;2023-06-26T07:34:28;9.17;;;8.37;;
1467;SDS011;727;48.892;9.544;2023-06-26T07:36:55;10.40;;;9.40;;
1467;SDS011;727;48.892;9.544;2023-06-26T07:39:22;8.97;;;8.17;;
1467;SDS011;727;48.892;9.544;2023-06-26T07:41:49;8.93;;;8.07;;
1467;SDS011;727;48.892;9.544;2023-06-26T07:44:18;8.60;;;7.80;;
1467;SDS011;727;48.892;9.544;2023-06-26T07:46:44;9.30;;;8.50;;
1467;SDS011;727;48.892;9.544;2023-06-26T07:49:11;10.63;;;7.70;;
1467;SDS011;727;48.892;9.544;2023-06-26T07:51:38;9.67;;;8.73;;
1467;SDS011;727;48.892;9.544;2023-06-26T07:54:05;9.37;;;8.47;;
1467;SDS011;727;48.892;9.544;2023-06-26T07:56:34;9.80;;;8.80;;
1467;SDS011;727;48.892;9.544;2023-06-26T07:59:19;8.70;;;7.90;;
1467;SDS011;727;48.892;9.544;2023-06-26T08:01:47;8.33;;;7.63;;
1467;SDS011;727;48.892;9.544;2023-06-26T08:04:13;9.60;;;8.70;;
1467;SDS011;727;48.892;9.544;2023-06-26T08:06:40;8.70;;;7.90;;
1467;SDS011;727;48.892;9.544;2023-06-26T08:09:07;8.00;;;7.40;;
1467;SDS011;727;48.892;9.544;2023-06-26T08:11:34;8.67;;;7.97;;
1467;SDS011;727;48.892;9.544;2023-06-26T08:14:01;9.17;;;8.27;;
1467;SDS011;727;48.892;9.544;2023-06-26T08:16:29;8.27;;;7.47;;
1467;SDS011;727;48.892;9.544;2023-06-26T08:18:56;8.60;;;7.90;;
1467;SDS011;727;48.892;9.544;2023-06-26T08:21:23;7.20;;;6.60;;
1467;SDS011;727;48.892;9.544;2023-06-26T08:23:50;8.60;;;7.63;;
1467;SDS011;727;48.892;9.544;2023-06-26T08:26:16;8.20;;;7.50;;
1467;SDS011;727;48.892;9.544;2023-06-26T08:28:43;10.30;;;7.07;;
1467;SDS011;727;48.892;9.544;2023-06-26T08:31:10;7.20;;;6.60;;
1467;SDS011;727;48.892;9.544;2023-06-26T08:33:40;8.40;;;6.77;;
1467;SDS011;727;48.892;9.544;2023-06-26T08:36:06;7.20;;;6.60;;
1467;SDS011;727;48.892;9.544;2023-06-26T08:38:33;6.70;;;6.00;;
1467;SDS011;727;48.892;9.544;2023-06-26T08:41:01;8.97;;;6.63;;
1467;SDS011;727;48.892;9.544;2023-06-26T08:43:28;6.93;;;6.33;;
1467;SDS011;727;48.892;9.544;2023-06-26T08:45:55;7.60;;;6.90;;
1467;SDS011;727;48.892;9.544;2023-06-26T08:48:22;6.93;;;6.37;;
1467;SDS011;727;48.892;9.544;2023-06-26T08:50:52;8.97;;;8.07;;
1467;SDS011;727;48.892;9.544;2023-06-26T08:53:21;6.20;;;5.70;;
1467;SDS011;727;48.892;9.544;2023-06-26T08:55:59;6.80;;;6.10;;
1467;SDS011;727;48.892;9.544;2023-06-26T08:58:27;7.53;;;6.83;;
1467;SDS011;727;48.892;9.544;2023-06-26T09:00:54;8.03;;;7.33;;
1467;SDS011;727;48.892;9.544;2023-06-26T09:03:21;7.13;;;6.53;;
1467;SDS011;727;48.892;9.544;2023-06-26T09:05:51;7.50;;;6.80;;
1467;SDS011;727;48.892;9.544;2023-06-26T09:08:18;7.53;;;6.93;;
1467;SDS011;727;48.892;9.544;2023-06-26T09:10:45;6.30;;;5.80;;
1467;SDS011;727;48.892;9.544;2023-06-26T09:13:12;6.90;;;6.40;;
1467;SDS011;727;48.892;9.544;2023-06-26T09:15:41;7.33;;;6.70;;
1467;SDS011;727;48.892;9.544;2023-06-26T09:18:09;7.43;;;6.73;;
1467;SDS011;727;48.892;9.544;2023-06-26T09:20:36;7.90;;;6.27;;
1467;SDS011;727;48.892;9.544;2023-06-26T09:23:04;7.57;;;6.97;;
1467;SDS011;727;48.892;9.544;2023-06-26T09:25:31;7.30;;;6.20;;
1467;SDS011;727;48.892;9.544;2023-06-26T09:27:58;7.17;;;6.67;;
1467;SDS011;727;48.892;9.544;2023-06-26T09:30:25;7.47;;;6.87;;
1467;SDS011;727;48.892;9.544;2023-06-26T09:32:52;6.60;;;5.90;;
1467;SDS011;727;48.892;9.544;2023-06-26T09:35:20;6.93;;;6.10;;
1467;SDS011;727;48.892;9.544;2023-06-26T09:37:47;7.17;;;6.57;;
1467;SDS011;727;48.892;9.544;2023-06-26T09:40:15;7.37;;;6.77;;
1467;SDS011;727;48.892;9.544;2023-06-26T09:42:42;7.63;;;7.03;;
1467;SDS011;727;48.892;9.544;2023-06-26T09:45:13;6.87;;;6.27;;
1467;SDS011;727;48.892;9.544;2023-06-26T09:47:45;6.40;;;5.80;;
1467;SDS011;727;48.892;9.544;2023-06-26T09:50:20;7.53;;;6.50;;
1467;SDS011;727;48.892;9.544;2023-06-26T09:52:48;7.30;;;6.60;;
1467;SDS011;727;48.892;9.544;2023-06-26T09:55:18;6.57;;;6.00;;
1467;SDS011;727;48.892;9.544;2023-06-26T09:57:47;7.40;;;6.67;;
1467;SDS011;727;48.892;9.544;2023-06-26T10:00:15;11.63;;;6.23;;
1467;SDS011;727;48.892;9.544;2023-06-26T10:02:42;6.00;;;5.50;;
1467;SDS011;727;48.892;9.544;2023-06-26T10:05:10;6.83;;;6.23;;
1467;SDS011;727;48.892;9.544;2023-06-26T10:07:37;6.93;;;6.30;;
1467;SDS011;727;48.892;9.544;2023-06-26T10:10:05;7.00;;;6.30;;
1467;SDS011;727;48.892;9.544;2023-06-26T10:12:36;7.47;;;6.77;;
1467;SDS011;727;48.892;9.544;2023-06-26T10:15:02;8.03;;;6.10;;
1467;SDS011;727;48.892;9.544;2023-06-26T10:17:32;6.97;;;6.40;;
1467;SDS011;727;48.892;9.544;2023-06-26T10:20:02;8.30;;;6.90;;
1467;SDS011;727;48.892;9.544;2023-06-26T10:22:32;9.10;;;6.80;;
1467;SDS011;727;48.892;9.544;2023-06-26T10:25:06;7.53;;;6.80;;
1467;SDS011;727;48.892;9.544;2023-06-26T10:27:38;6.10;;;5.60;;
1467;SDS011;727;48.892;9.544;2023-06-26T10:30:09;6.57;;;6.07;;
1467;SDS011;727;48.892;9.544;2023-06-26T10:32:39;6.97;;;6.37;;
1467;SDS011;727;48.892;9.544;2023-06-26T10:35:06;6.80;;;6.20;;
1467;SDS011;727;48.892;9.544;2023-06-26T10:37:40;7.43;;;6.83;;
1467;SDS011;727;48.892;9.544;2023-06-26T10:40:08;9.40;;;6.83;;
1467;SDS011;727;48.892;9.544;2023-06-26T10:42:36;6.30;;;5.90;;
1467;SDS011;727;48.892;9.544;2023-06-26T10:45:13;6.47;;;5.97;;
1467;SDS011;727;48.892;9.544;2023-06-26T10:47:40;6.37;;;5.87;;
1467;SDS011;727;48.892;9.544;2023-06-26T10:50:18;6.53;;;6.03;;
1467;SDS011;727;48.892;9.544;2023-06-26T10:52:45;7.70;;;7.00;;
1467;SDS011;727;48.892;9.544;2023-06-26T10:55:32;7.20;;;6.70;;
1467;SDS011;727;48.892;9.544;2023-06-26T10:58:00;7.53;;;6.93;;
1467;SDS011;727;48.892;9.544;2023-06-26T11:00:28;6.93;;;6.23;;
1467;SDS011;727;48.892;9.544;2023-06-26T11:02:55;6.50;;;5.90;;
1467;SDS011;727;48.892;9.544;2023-06-26T11:05:25;7.63;;;7.03;;
1467;SDS011;727;48.892;9.544;2023-06-26T11:08:03;6.47;;;5.90;;
1467;SDS011;727;48.892;9.544;2023-06-26T11:13:18;7.03;;;6.43;;
1467;SDS011;727;48.892;9.544;2023-06-26T11:15:46;6.53;;;6.03;;
1467;SDS011;727;48.892;9.544;2023-06-26T11:18:13;6.97;;;5.90;;
1467;SDS011;727;48.892;9.544;2023-06-26T11:20:40;6.50;;;5.90;;
1467;SDS011;727;48.892;9.544;2023-06-26T11:23:07;7.40;;;6.20;;
1467;SDS011;727;48.892;9.544;2023-06-26T11:25:35;8.13;;;7.23;;
1467;SDS011;727;48.892;9.544;2023-06-26T11:28:02;8.00;;;7.27;;
1467;SDS011;727;48.892;9.544;2023-06-26T11:30:31;7.80;;;7.10;;
1467;SDS011;727;48.892;9.544;2023-06-26T11:33:02;7.90;;;7.10;;
1467;SDS011;727;48.892;9.544;2023-06-26T11:35:30;12.67;;;8.40;;
1467;SDS011;727;48.892;9.544;2023-06-26T11:37:57;7.90;;;7.10;;
1467;SDS011;727;48.892;9.544;2023-06-26T11:40:29;9.07;;;8.17;;
1467;SDS011;727;48.892;9.544;2023-06-26T11:42:57;8.60;;;7.73;;
1467;SDS011;727;48.892;9.544;2023-06-26T11:45:25;7.67;;;7.07;;
1467;SDS011;727;48.892;9.544;2023-06-26T11:47:57;14.20;;;9.10;;
1467;SDS011;727;48.892;9.544;2023-06-26T11:50:26;8.30;;;7.50;;
1467;SDS011;727;48.892;9.544;2023-06-26T11:52:54;8.53;;;7.63;;
1467;SDS011;727;48.892;9.544;2023-06-26T11:55:25;7.83;;;7.17;;
1467;SDS011;727;48.892;9.544;2023-06-26T11:58:06;9.90;;;7.43;;
1467;SDS011;727;48.892;9.544;2023-06-26T12:00:33;8.00;;;7.33;;
1467;SDS011;727;48.892;9.544;2023-06-26T12:03:02;10.27;;;8.47;;
1467;SDS011;727;48.892;9.544;2023-06-26T12:05:29;8.10;;;7.30;;
1467;SDS011;727;48.892;9.544;2023-06-26T12:07:56;8.30;;;7.50;;
1467;SDS011;727;48.892;9.544;2023-06-26T12:10:24;7.43;;;6.83;;
1467;SDS011;727;48.892;9.544;2023-06-26T12:12:52;8.60;;;7.90;;
1467;SDS011;727;48.892;9.544;2023-06-26T12:15:21;9.07;;;8.17;;
1467;SDS011;727;48.892;9.544;2023-06-26T12:17:48;9.80;;;7.67;;
1467;SDS011;727;48.892;9.544;2023-06-26T12:20:20;7.17;;;6.53;;
1467;SDS011;727;48.892;9.544;2023-06-26T12:22:48;7.33;;;6.63;;
1467;SDS011;727;48.892;9.544;2023-06-26T12:25:16;10.30;;;7.53;;
1467;SDS011;727;48.892;9.544;2023-06-26T12:27:49;9.33;;;7.50;;
1467;SDS011;727;48.892;9.544;2023-06-26T12:30:16;11.53;;;8.00;;
1467;SDS011;727;48.892;9.544;2023-06-26T12:32:46;7.80;;;7.20;;
1467;SDS011;727;48.892;9.544;2023-06-26T12:35:14;7.57;;;7.03;;
1467;SDS011;727;48.892;9.544;2023-06-26T12:37:43;8.20;;;7.03;;
1467;SDS011;727;48.892;9.544;2023-06-26T12:40:16;7.40;;;6.80;;
1467;SDS011;727;48.892;9.544;2023-06-26T12:42:44;8.57;;;7.67;;
1467;SDS011;727;48.892;9.544;2023-06-26T12:45:12;8.17;;;7.53;;
1467;SDS011;727;48.892;9.544;2023-06-26T12:47:40;9.47;;;8.50;;
1467;SDS011;727;48.892;9.544;2023-06-26T12:50:07;8.43;;;7.63;;
1467;SDS011;727;48.892;9.544;2023-06-26T12:52:34;7.73;;;7.03;;
1467;SDS011;727;48.892;9.544;2023-06-26T12:55:04;9.03;;;7.73;;
1467;SDS011;727;48.892;9.544;2023-06-26T12:57:36;9.73;;;7.30;;
1467;SDS011;727;48.892;9.544;2023-06-26T13:00:03;13.63;;;7.87;;
1467;SDS011;727;48.892;9.544;2023-06-26T13:02:31;8.33;;;7.63;;
1467;SDS011;727;48.892;9.544;2023-06-26T13:04:58;10.33;;;8.20;;
1467;SDS011;727;48.892;9.544;2023-06-26T13:07:25;9.07;;;8.17;;
1467;SDS011;727;48.892;9.544;2023-06-26T13:09:52;9.37;;;7.83;;
1467;SDS011;727;48.892;9.544;2023-06-26T13:12:22;7.20;;;6.60;;
1467;SDS011;727;48.892;9.544;2023-06-26T13:14:49;8.50;;;7.60;;
1467;SDS011;727;48.892;9.544;2023-06-26T13:17:17;7.83;;;7.10;;
1467;SDS011;727;48.892;9.544;2023-06-26T13:19:44;7.87;;;7.03;;
1467;SDS011;727;48.892;9.544;2023-06-26T13:22:11;9.60;;;8.17;;
1467;SDS011;727;48.892;9.544;2023-06-26T13:24:39;7.57;;;6.87;;
1467;SDS011;727;48.892;9.544;2023-06-26T13:27:06;7.57;;;6.93;;
1467;SDS011;727;48.892;9.544;2023-06-26T13:29:35;7.17;;;6.50;;
1467;SDS011;727;48.892;9.544;2023-06-26T13:32:01;12.53;;;7.40;;
1467;SDS011;727;48.892;9.544;2023-06-26T13:34:28;8.47;;;7.70;;
1467;SDS011;727;48.892;9.544;2023-06-26T13:36:55;8.43;;;7.50;;
1467;SDS011;727;48.892;9.544;2023-06-26T13:39:24;7.93;;;7.23;;
1467;SDS011;727;48.892;9.544;2023-06-26T13:41:51;9.70;;;7.00;;
1467;SDS011;727;48.892;9.544;2023-06-26T13:44:18;8.17;;;7.37;;
1467;SDS011;727;48.892;9.544;2023-06-26T13:46:47;7.90;;;7.13;;
1467;SDS011;727;48.892;9.544;2023-06-26T13:49:14;14.33;;;8.93;;
1467;SDS011;727;48.892;9.544;2023-06-26T13:51:41;8.23;;;7.43;;
1467;SDS011;727;48.892;9.544;2023-06-26T13:54:12;7.93;;;7.13;;
1467;SDS011;727;48.892;9.544;2023-06-26T13:56:38;9.90;;;7.00;;
1467;SDS011;727;48.892;9.544;2023-06-26T13:59:05;10.80;;;8.37;;
1467;SDS011;727;48.892;9.544;2023-06-26T14:01:32;11.83;;;7.13;;
1467;SDS011;727;48.892;9.544;2023-06-26T14:04:00;7.17;;;6.37;;
1467;SDS011;727;48.892;9.544;2023-06-26T14:06:27;11.67;;;7.23;;
1467;SDS011;727;48.892;9.544;2023-06-26T14:08:55;7.13;;;6.43;;
1467;SDS011;727;48.892;9.544;2023-06-26T14:11:22;6.07;;;5.47;;
1467;SDS011;727;48.892;9.544;2023-06-26T14:13:50;14.37;;;5.77;;
1467;SDS011;727;48.892;9.544;2023-06-26T14:16:17;6.60;;;5.63;;
1467;SDS011;727;48.892;9.544;2023-06-26T14:18:45;9.13;;;6.73;;
1467;SDS011;727;48.892;9.544;2023-06-26T14:21:14;7.67;;;6.03;;
1467;SDS011;727;48.892;9.544;2023-06-26T14:23:41;5.60;;;5.00;;
1467;SDS011;727;48.892;9.544;2023-06-26T14:26:09;11.23;;;6.27;;
1467;SDS011;727;48.892;9.544;2023-06-26T14:28:36;6.63;;;5.20;;
1467;SDS011;727;48.892;9.544;2023-06-26T14:31:04;6.03;;;4.83;;
1467;SDS011;727;48.892;9.544;2023-06-26T14:33:31;5.40;;;4.93;;
1467;SDS011;727;48.892;9.544;2023-06-26T14:35:58;5.63;;;5.13;;
1467;SDS011;727;48.892;9.544;2023-06-26T14:38:26;5.70;;;5.20;;
1467;SDS011;727;48.892;9.544;2023-06-26T14:40:54;8.13;;;4.77;;
1467;SDS011;727;48.892;9.544;2023-06-26T14:43:21;6.07;;;4.13;;
1467;SDS011;727;48.892;9.544;2023-06-26T14:45:51;4.40;;;4.00;;
1467;SDS011;727;48.892;9.544;2023-06-26T14:48:18;7.77;;;4.73;;
1467;SDS011;727;48.892;9.544;2023-06-26T14:50:45;4.97;;;4.13;;
1467;SDS011;727;48.892;9.544;2023-06-26T14:53:12;5.33;;;4.03;;
1467;SDS011;727;48.892;9.544;2023-06-26T14:55:41;4.53;;;3.93;;
1467;SDS011;727;48.892;9.544;2023-06-26T14:58:07;12.27;;;4.87;;
1467;SDS011;727;48.892;9.544;2023-06-26T15:00:34;6.23;;;4.10;;
1467;SDS011;727;48.892;9.544;2023-06-26T15:03:01;8.23;;;4.60;;
1467;SDS011;727;48.892;9.544;2023-06-26T15:05:28;13.73;;;4.03;;
1467;SDS011;727;48.892;9.544;2023-06-26T15:07:54;5.73;;;3.70;;
1467;SDS011;727;48.892;9.544;2023-06-26T15:10:21;6.03;;;4.23;;
1467;SDS011;727;48.892;9.544;2023-06-26T15:12:49;5.33;;;4.53;;
1467;SDS011;727;48.892;9.544;2023-06-26T15:15:16;4.27;;;3.87;;
1467;SDS011;727;48.892;9.544;2023-06-26T15:17:43;5.13;;;4.63;;
1467;SDS011;727;48.892;9.544;2023-06-26T15:20:10;7.17;;;4.77;;
1467;SDS011;727;48.892;9.544;2023-06-26T15:22:37;17.10;;;5.80;;
1467;SDS011;727;48.892;9.544;2023-06-26T15:25:06;4.57;;;3.90;;
1467;SDS011;727;48.892;9.544;2023-06-26T15:27:33;4.60;;;4.20;;
1467;SDS011;727;48.892;9.544;2023-06-26T15:30:01;4.70;;;3.87;;
1467;SDS011;727;48.892;9.544;2023-06-26T15:32:30;5.53;;;4.00;;
1467;SDS011;727;48.892;9.544;2023-06-26T15:34:57;4.30;;;3.90;;